createdAt,value
2023-01-21T00:01:37.693Z,100683.75
2023-01-21T00:04:05.921Z,100688.72
2023-01-21T00:09:26.237Z,100685.34
2023-01-21T00:11:54.774Z,100689.41
2023-01-21T00:14:22.927Z,100694.34
2023-01-21T00:16:51.245Z,100693.28
2023-01-21T00:19:19.049Z,100692.56
2023-01-21T00:21:50.083Z,100695.78
2023-01-21T00:27:02.991Z,100703.34
2023-01-21T00:29:34.259Z,100708.75
2023-01-21T00:32:01.918Z,100710.41
2023-01-21T00:34:29.515Z,100713.16
2023-01-21T00:36:58.536Z,100709.97
2023-01-21T00:39:27.169Z,100716.69
2023-01-21T00:42:00.434Z,100715.25
2023-01-21T00:44:29.627Z,100724.72
2023-01-21T00:46:57.299Z,100727.50
2023-01-21T00:49:25.998Z,100724.47
2023-01-21T00:51:55.641Z,100725.19
2023-01-21T00:54:27.426Z,100729.28
2023-01-21T00:57:00.429Z,100724.59
2023-01-21T01:02:11.752Z,100738.38
2023-01-21T01:04:39.984Z,100741.53
2023-01-21T01:07:07.738Z,100744.47
2023-01-21T01:09:36.691Z,100746.00
2023-01-21T01:12:06.888Z,100752.88
2023-01-21T01:14:34.453Z,100744.44
2023-01-21T01:17:03.410Z,100758.03
2023-01-21T01:19:32.398Z,100760.25
2023-01-21T01:22:00.038Z,100755.97
2023-01-21T01:24:30.022Z,100762.94
2023-01-21T01:26:59.952Z,100765.59
2023-01-21T01:29:28.655Z,100768.50
2023-01-21T01:31:59.188Z,100771.03
2023-01-21T01:34:26.776Z,100788.97
2023-01-21T01:36:54.341Z,100788.50
2023-01-21T01:39:22.271Z,100788.72
2023-01-21T01:41:49.868Z,100795.50
2023-01-21T01:44:57.200Z,100796.66
2023-01-21T01:47:31.292Z,100796.91
2023-01-21T01:50:06.477Z,100805.41
2023-01-21T01:52:42.317Z,100807.09
2023-01-21T01:55:17.700Z,100809.19
2023-01-21T01:57:55.613Z,100813.00
2023-01-21T02:00:25.044Z,100811.03
2023-01-21T02:03:14.588Z,100818.63
2023-01-21T02:05:43.482Z,100819.34
2023-01-21T02:08:11.990Z,100825.69
2023-01-21T02:10:43.281Z,100823.38
2023-01-21T02:13:13.121Z,100839.22
2023-01-21T02:15:48.430Z,100838.59
2023-01-21T02:18:26.513Z,100837.13
2023-01-21T02:21:24.117Z,100837.13
2023-01-21T02:24:20.394Z,100836.91
2023-01-21T02:27:40.408Z,100840.28
2023-01-21T02:30:39.097Z,100839.25
2023-01-21T02:33:26.704Z,100839.97
2023-01-21T02:36:06.792Z,100841.22
2023-01-21T02:38:43.755Z,100837.75
2023-01-21T02:41:23.517Z,100844.69
2023-01-21T02:43:58.239Z,100843.84
2023-01-21T02:46:35.681Z,100849.41
2023-01-21T02:49:08.649Z,100845.13
2023-01-21T02:51:36.599Z,100857.13
2023-01-21T02:54:14.682Z,100861.06
2023-01-21T02:56:43.582Z,100857.47
2023-01-21T02:59:13.082Z,100861.25
2023-01-21T03:01:51.892Z,100869.41
2023-01-21T03:04:43.750Z,100862.84
2023-01-21T03:07:19.617Z,100869.56
2023-01-21T03:09:47.687Z,100883.38
2023-01-21T03:12:27.611Z,100881.47
2023-01-21T03:15:17.008Z,100891.97
2023-01-21T03:17:51.708Z,100895.59
2023-01-21T03:20:25.259Z,100885.28
2023-01-21T03:22:57.728Z,100892.03
2023-01-21T03:25:26.793Z,100897.00
2023-01-21T03:27:56.051Z,100891.50
2023-01-21T03:30:26.485Z,100894.66
2023-01-21T03:32:57.307Z,100895.72
2023-01-21T03:35:29.653Z,100902.22
2023-01-21T03:38:01.381Z,100915.38
2023-01-21T03:40:34.559Z,100921.31
2023-01-21T03:43:03.243Z,100903.44
2023-01-21T03:45:37.711Z,100905.44
2023-01-21T03:48:14.541Z,100907.91
2023-01-21T03:50:48.621Z,100915.47
2023-01-21T03:53:16.416Z,100918.44
2023-01-21T03:55:43.979Z,100909.16
2023-01-21T03:58:11.665Z,100919.41
2023-01-21T04:00:39.416Z,100914.97
2023-01-21T04:03:07.007Z,100916.00
2023-01-21T04:05:35.943Z,100913.44
2023-01-21T04:08:04.844Z,100921.63
2023-01-21T04:10:32.465Z,100919.44
2023-01-21T04:12:59.993Z,100921.06
2023-01-21T04:15:27.636Z,100914.56
2023-01-21T04:17:55.232Z,100921.06
2023-01-21T04:20:22.849Z,100923.78
2023-01-21T04:22:50.439Z,100922.06
2023-01-21T04:25:19.390Z,100929.97
2023-01-21T04:27:46.953Z,100924.53
2023-01-21T04:30:15.065Z,100923.34
2023-01-21T04:32:43.429Z,100929.16
2023-01-21T04:35:11.194Z,100925.13
2023-01-21T04:37:38.745Z,100925.41
2023-01-21T04:40:07.469Z,100923.91
2023-01-21T04:42:38.735Z,100932.56
2023-01-21T04:45:07.960Z,100934.69
2023-01-21T04:47:35.545Z,100937.81
2023-01-21T04:50:04.726Z,100932.81
2023-01-21T04:52:32.351Z,100940.97
2023-01-21T04:55:00.118Z,100935.25
2023-01-21T04:57:27.765Z,100926.72
2023-01-21T04:59:56.774Z,100948.22
2023-01-21T05:02:24.656Z,100945.59
2023-01-21T05:04:52.332Z,100951.03
2023-01-21T05:07:21.678Z,100956.41
2023-01-21T05:09:49.469Z,100953.47
2023-01-21T05:12:17.099Z,100953.19
2023-01-21T05:14:44.931Z,100960.88
2023-01-21T05:17:13.873Z,100964.63
2023-01-21T05:19:41.432Z,100963.91
2023-01-21T05:22:09.061Z,100958.00
2023-01-21T05:24:37.628Z,100961.16
2023-01-21T05:27:05.473Z,100962.75
2023-01-21T05:29:33.003Z,100960.53
2023-01-21T05:32:02.255Z,100959.38
2023-01-21T05:34:31.246Z,100963.16
2023-01-21T05:36:59.213Z,100955.44
2023-01-21T05:39:26.851Z,100963.50
2023-01-21T05:41:54.599Z,100962.22
2023-01-21T05:44:22.429Z,100972.97
2023-01-21T05:46:50.066Z,100967.38
2023-01-21T05:49:17.976Z,100974.88
2023-01-21T05:51:47.208Z,100971.94
2023-01-21T05:54:14.954Z,100982.56
2023-01-21T05:56:42.822Z,100974.31
2023-01-21T05:59:10.625Z,100980.13
2023-01-21T06:01:38.309Z,100980.03
2023-01-21T06:04:06.184Z,100982.00
2023-01-21T06:06:33.842Z,100983.78
2023-01-21T06:09:02.718Z,100991.16
2023-01-21T06:11:30.436Z,100991.81
2023-01-21T06:14:00.199Z,100990.16
2023-01-21T06:16:28.312Z,100987.16
2023-01-21T06:18:55.972Z,100992.50
2023-01-21T06:21:23.642Z,101002.06
2023-01-21T06:23:51.314Z,100999.69
2023-01-21T06:26:20.329Z,100998.69
2023-01-21T06:28:48.130Z,101018.69
2023-01-21T06:31:15.807Z,101014.47
2023-01-21T06:33:44.104Z,101021.97
2023-01-21T06:36:14.279Z,101020.03
2023-01-21T06:38:41.952Z,101015.13
2023-01-21T06:41:09.610Z,101022.88
2023-01-21T06:43:38.771Z,101026.66
2023-01-21T06:46:06.888Z,101022.91
2023-01-21T06:48:34.966Z,101021.97
2023-01-21T06:51:02.939Z,101032.97
2023-01-21T06:53:30.836Z,101041.44
2023-01-21T06:55:58.570Z,101041.50
2023-01-21T06:58:26.362Z,101045.75
2023-01-21T07:00:57.973Z,101045.47
2023-01-21T07:03:26.562Z,101053.91
2023-01-21T07:05:54.202Z,101046.09
2023-01-21T07:08:22.030Z,101050.88
2023-01-21T07:10:49.885Z,101054.94
2023-01-21T07:13:17.557Z,101059.34
2023-01-21T07:15:47.482Z,101050.03
2023-01-21T07:18:16.461Z,101053.34
2023-01-21T07:20:44.084Z,101058.69
2023-01-21T07:23:13.891Z,101054.06
2023-01-21T07:25:41.501Z,101053.50
2023-01-21T07:28:09.805Z,101060.09
2023-01-21T07:30:37.540Z,101064.94
2023-01-21T07:33:09.375Z,101071.00
2023-01-21T07:35:39.712Z,101073.63
2023-01-21T07:38:07.951Z,101079.53
2023-01-21T07:40:36.378Z,101076.47
2023-01-21T07:43:04.090Z,101073.34
2023-01-21T07:45:31.720Z,101081.09
2023-01-21T07:48:00.168Z,101079.00
2023-01-21T07:50:28.457Z,101083.41
2023-01-21T07:52:59.476Z,101085.31
2023-01-21T07:55:27.470Z,101088.69
2023-01-21T07:57:56.796Z,101089.72
2023-01-21T08:00:27.267Z,101085.13
2023-01-21T08:02:55.819Z,101086.72
2023-01-21T08:05:26.720Z,101090.59
2023-01-21T08:07:59.407Z,101089.06
2023-01-21T08:10:27.339Z,101086.63
2023-01-21T08:12:55.006Z,101095.00
2023-01-21T08:15:25.195Z,101102.88
2023-01-21T08:17:52.848Z,101103.00
2023-01-21T08:20:20.744Z,101099.72
2023-01-21T08:22:48.326Z,101095.19
2023-01-21T08:25:17.759Z,101094.91
2023-01-21T08:27:45.587Z,101106.84
2023-01-21T08:30:13.730Z,101101.97
2023-01-21T08:32:41.729Z,101101.66
2023-01-21T08:35:10.282Z,101106.63
2023-01-21T08:37:39.536Z,101100.69
2023-01-21T08:40:09.193Z,101113.66
2023-01-21T08:42:39.404Z,101111.03
2023-01-21T08:45:09.159Z,101122.31
2023-01-21T08:47:38.856Z,101119.00
2023-01-21T08:50:08.042Z,101128.78
2023-01-21T08:52:35.824Z,101131.59
2023-01-21T08:55:03.394Z,101128.22
2023-01-21T08:57:30.900Z,101136.44
2023-01-21T08:59:59.998Z,101137.97
2023-01-21T09:02:27.850Z,101136.31
2023-01-21T09:04:55.609Z,101144.81
2023-01-21T09:07:23.202Z,101140.84
2023-01-21T09:09:50.751Z,101139.00
2023-01-21T09:12:18.396Z,101147.09
2023-01-21T09:14:46.218Z,101145.88
2023-01-21T09:17:15.486Z,101148.06
2023-01-21T09:19:43.179Z,101149.34
2023-01-21T09:22:10.947Z,101158.75
2023-01-21T09:24:38.478Z,101158.75
2023-01-21T09:27:07.806Z,101154.47
2023-01-21T09:29:35.512Z,101161.41
2023-01-21T09:32:07.479Z,101152.94
2023-01-21T09:34:36.678Z,101161.16
2023-01-21T09:37:05.019Z,101162.94
2023-01-21T09:39:33.751Z,101158.19
2023-01-21T09:42:01.514Z,101160.66
2023-01-21T09:44:33.283Z,101165.88
2023-01-21T09:47:05.794Z,101171.72
2023-01-21T09:49:39.129Z,101164.97
2023-01-21T09:52:21.045Z,101172.78
2023-01-21T09:54:49.017Z,101174.59
2023-01-21T09:57:33.618Z,101182.50
2023-01-21T10:00:19.666Z,101182.34
2023-01-21T10:02:55.656Z,101182.28
2023-01-21T10:05:40.059Z,101177.16
2023-01-21T10:08:17.868Z,101197.72
2023-01-21T10:10:51.166Z,101179.09
2023-01-21T10:13:41.969Z,101182.56
2023-01-21T10:16:19.133Z,101177.28
2023-01-21T10:18:49.712Z,101186.50
2023-01-21T10:21:29.504Z,101183.69
2023-01-21T10:24:02.603Z,101173.56
2023-01-21T10:26:33.424Z,101175.47
2023-01-21T10:29:01.610Z,101180.19
2023-01-21T10:31:30.836Z,101184.00
2023-01-21T10:33:58.573Z,101172.75
2023-01-21T10:36:47.695Z,101177.41
2023-01-21T10:39:23.851Z,101174.56
2023-01-21T10:42:08.144Z,101181.75
2023-01-21T10:44:44.873Z,101178.44
2023-01-21T10:47:19.527Z,101191.00
2023-01-21T10:49:55.437Z,101179.94
2023-01-21T10:52:30.146Z,101182.97
2023-01-21T10:55:03.927Z,101198.69
2023-01-21T10:57:46.824Z,101194.81
2023-01-21T11:00:22.176Z,101182.06
2023-01-21T11:02:55.647Z,101195.75
2023-01-21T11:05:25.460Z,101180.31
2023-01-21T11:07:55.075Z,101182.97
2023-01-21T11:10:25.559Z,101173.38
2023-01-21T11:12:55.926Z,101189.22
2023-01-21T11:15:24.991Z,101184.91
2023-01-21T11:17:56.400Z,101187.75
2023-01-21T11:20:30.347Z,101187.94
2023-01-21T11:22:59.368Z,101198.63
2023-01-21T11:25:40.953Z,101179.72
2023-01-21T11:28:24.093Z,101196.38
2023-01-21T11:31:03.177Z,101204.91
2023-01-21T11:33:30.995Z,101201.25
2023-01-21T11:36:13.810Z,101200.81
2023-01-21T11:38:43.664Z,101196.06
2023-01-21T11:41:23.208Z,101190.72
2023-01-21T11:43:52.876Z,101190.81
2023-01-21T11:46:39.061Z,101179.09
2023-01-21T11:49:27.528Z,101183.88
2023-01-21T11:52:19.503Z,101200.44
2023-01-21T11:54:49.066Z,101203.81
2023-01-21T11:57:30.025Z,101188.31
2023-01-21T12:00:08.050Z,101195.38
2023-01-21T12:02:40.939Z,101197.16
2023-01-21T12:05:17.201Z,101185.03
2023-01-21T12:07:50.217Z,101196.53
2023-01-21T12:10:30.502Z,101185.66
2023-01-21T12:13:11.649Z,101187.88
2023-01-21T12:15:51.210Z,101184.16
2023-01-21T12:18:35.559Z,101194.59
2023-01-21T12:21:06.326Z,101184.47
2023-01-21T12:23:57.802Z,101181.84
2023-01-21T12:26:37.761Z,101186.50
2023-01-21T12:29:22.329Z,101180.59
2023-01-21T12:31:53.380Z,101178.47
2023-01-21T12:34:26.783Z,101205.94
2023-01-21T12:36:59.504Z,101196.88
2023-01-21T12:39:32.057Z,101186.78
2023-01-21T12:42:08.757Z,101187.84
2023-01-21T12:44:40.479Z,101186.69
2023-01-21T12:47:19.977Z,101196.31
2023-01-21T12:50:04.848Z,101187.16
2023-01-21T12:52:41.083Z,101180.25
2023-01-21T12:55:19.102Z,101176.47
2023-01-21T12:57:55.426Z,101183.75
2023-01-21T13:00:26.127Z,101174.06
2023-01-21T13:03:01.263Z,101174.22
2023-01-21T13:05:35.304Z,101184.91
2023-01-21T13:08:21.863Z,101186.59
2023-01-21T13:10:55.461Z,101184.88
2023-01-21T13:13:32.189Z,101179.84
2023-01-21T13:16:05.014Z,101192.63
2023-01-21T13:18:36.906Z,101185.28
2023-01-21T13:21:12.963Z,101186.44
2023-01-21T13:23:46.973Z,101195.16
2023-01-21T13:26:22.679Z,101186.94
2023-01-21T13:29:00.431Z,101182.50
2023-01-21T13:31:33.984Z,101196.44
2023-01-21T13:34:15.548Z,101190.50
2023-01-21T13:37:00.617Z,101185.34
2023-01-21T13:39:36.063Z,101186.66
2023-01-21T13:42:17.446Z,101183.25
2023-01-21T13:44:57.756Z,101184.63
2023-01-21T13:47:37.604Z,101182.84
2023-01-21T13:50:19.793Z,101177.47
2023-01-21T13:53:14.296Z,101169.66
2023-01-21T13:55:55.457Z,101180.31
2023-01-21T13:58:36.013Z,101175.69
2023-01-21T14:01:09.898Z,101184.56
2023-01-21T14:03:42.428Z,101186.94
2023-01-21T14:06:16.076Z,101185.84
2023-01-21T14:08:49.375Z,101180.63
2023-01-21T14:11:20.630Z,101178.94
2023-01-21T14:14:24.284Z,101189.25
2023-01-21T14:17:09.741Z,101169.91
2023-01-21T14:20:24.861Z,101174.53
2023-01-21T14:23:08.476Z,101202.03
2023-01-21T14:25:50.952Z,101206.75
2023-01-21T14:28:28.454Z,101184.91
2023-01-21T14:31:05.193Z,101180.78
2023-01-21T14:33:44.497Z,101189.63
2023-01-21T14:36:18.684Z,101182.56
2023-01-21T14:38:56.766Z,101174.72
2023-01-21T14:41:24.507Z,101182.56
2023-01-21T14:43:53.490Z,101167.91
2023-01-21T14:46:33.632Z,101176.78
2023-01-21T14:49:07.822Z,101181.97
2023-01-21T14:51:38.808Z,101171.59
2023-01-21T14:54:12.447Z,101187.09
2023-01-21T14:56:40.329Z,101187.97
2023-01-21T14:59:24.773Z,101176.09
2023-01-21T15:02:03.803Z,101188.09
2023-01-21T15:04:37.279Z,101181.63
2023-01-21T15:07:14.217Z,101186.25
2023-01-21T15:09:46.492Z,101188.66
2023-01-21T15:12:20.092Z,101184.28
2023-01-21T15:14:51.484Z,101182.88
2023-01-21T15:18:03.241Z,101173.78
2023-01-21T15:20:50.779Z,101190.69
2023-01-21T15:23:21.675Z,101186.47
2023-01-21T15:26:18.097Z,101185.41
2023-01-21T15:28:47.101Z,101186.25
2023-01-21T15:31:42.967Z,101187.19
2023-01-21T15:34:15.987Z,101198.97
2023-01-21T15:36:50.421Z,101196.09
2023-01-21T15:39:23.927Z,101196.19
2023-01-21T15:42:05.389Z,101200.25
2023-01-21T15:45:05.557Z,101204.22
2023-01-21T15:48:10.571Z,101204.03
2023-01-21T15:50:46.572Z,101176.88
2023-01-21T15:53:34.188Z,101195.06
2023-01-21T15:56:16.596Z,101200.88
2023-01-21T15:58:53.366Z,101199.28
2023-01-21T16:01:29.633Z,101196.44
2023-01-21T16:04:13.076Z,101198.13
2023-01-21T16:06:49.469Z,101203.50
2023-01-21T16:09:30.374Z,101205.94
2023-01-21T16:12:10.298Z,101209.09
2023-01-21T16:14:52.472Z,101208.78
2023-01-21T16:17:30.372Z,101221.78
2023-01-21T16:20:01.680Z,101206.78
2023-01-21T16:22:33.649Z,101205.19
2023-01-21T16:25:07.745Z,101205.94
2023-01-21T16:27:36.136Z,101208.28
2023-01-21T16:30:06.861Z,101221.03
2023-01-21T16:32:37.216Z,101220.19
2023-01-21T16:35:05.942Z,101210.16
2023-01-21T16:37:34.026Z,101205.75
2023-01-21T16:40:21.773Z,101205.75
2023-01-21T16:43:07.095Z,101204.03
2023-01-21T16:45:34.985Z,101204.47
2023-01-21T16:48:02.735Z,101206.88
2023-01-21T16:50:32.573Z,101197.91
2023-01-21T16:53:08.076Z,101203.94
2023-01-21T16:55:46.113Z,101188.81
2023-01-21T16:58:28.480Z,101198.75
2023-01-21T17:01:06.647Z,101193.44
2023-01-21T17:03:34.626Z,101193.03
2023-01-21T17:06:06.872Z,101187.53
2023-01-21T17:08:35.000Z,101184.91
2023-01-21T17:11:08.209Z,101201.69
2023-01-21T17:13:40.709Z,101190.72
2023-01-21T17:16:19.568Z,101187.97
2023-01-21T17:18:52.155Z,101183.75
2023-01-21T17:21:27.959Z,101183.75
2023-01-21T17:23:59.597Z,101185.84
2023-01-21T17:26:30.958Z,101186.69
2023-01-21T17:29:00.490Z,101189.56
2023-01-21T17:31:30.195Z,101195.25
2023-01-21T17:34:20.265Z,101198.97
2023-01-21T17:36:50.211Z,101193.91
2023-01-21T17:39:52.547Z,101200.66
2023-01-21T17:42:23.740Z,101204.13
2023-01-21T17:44:56.673Z,101213.34
2023-01-21T17:47:28.363Z,101209.97
2023-01-21T17:49:58.655Z,101214.91
2023-01-21T17:52:26.683Z,101203.63
2023-01-21T17:55:13.321Z,101204.25
2023-01-21T17:57:42.232Z,101211.44
2023-01-21T18:00:26.256Z,101207.75
2023-01-21T18:02:54.019Z,101210.81
2023-01-21T18:05:21.819Z,101217.00
2023-01-21T18:07:50.235Z,101212.50
2023-01-21T18:10:21.164Z,101206.06
2023-01-21T18:12:50.404Z,101203.94
2023-01-21T18:15:19.704Z,101197.69
2023-01-21T18:17:50.663Z,101202.53
2023-01-21T18:20:20.499Z,101205.94
2023-01-21T18:22:50.127Z,101204.34
2023-01-21T18:25:18.699Z,101203.09
2023-01-21T18:27:51.708Z,101208.03
2023-01-21T18:30:23.155Z,101205.63
2023-01-21T18:32:50.996Z,101197.59
2023-01-21T18:35:20.194Z,101193.13
2023-01-21T18:37:47.923Z,101196.47
2023-01-21T18:40:17.831Z,101205.25
2023-01-21T18:42:46.723Z,101206.88
2023-01-21T18:45:15.745Z,101212.56
2023-01-21T18:47:44.969Z,101209.91
2023-01-21T18:50:18.827Z,101204.50
2023-01-21T18:52:47.500Z,101201.53
2023-01-21T18:55:16.220Z,101195.06
2023-01-21T18:57:46.387Z,101208.53
2023-01-21T19:00:22.638Z,101198.06
2023-01-21T19:02:53.662Z,101192.44
2023-01-21T19:05:21.961Z,101205.25
2023-01-21T19:07:49.637Z,101203.34
2023-01-21T19:10:23.914Z,101204.25
2023-01-21T19:12:51.483Z,101205.53
2023-01-21T19:15:22.294Z,101203.84
2023-01-21T19:17:52.715Z,101209.25
2023-01-21T19:20:22.582Z,101204.38
2023-01-21T19:22:51.527Z,101200.91
2023-01-21T19:25:19.625Z,101209.44
2023-01-21T19:27:51.360Z,101205.72
2023-01-21T19:30:22.762Z,101194.19
2023-01-21T19:32:53.354Z,101198.25
2023-01-21T19:35:28.035Z,101194.88
2023-01-21T19:37:56.107Z,101196.22
2023-01-21T19:40:26.044Z,101191.66
2023-01-21T19:42:54.050Z,101183.78
2023-01-21T19:45:23.163Z,101187.25
2023-01-21T19:47:52.461Z,101194.34
2023-01-21T19:50:23.132Z,101186.41
2023-01-21T19:52:52.645Z,101183.78
2023-01-21T19:55:22.179Z,101184.09
2023-01-21T19:57:55.605Z,101192.53
2023-01-21T20:00:25.166Z,101182.56
2023-01-21T20:02:54.411Z,101175.84
2023-01-21T20:05:22.251Z,101177.53
2023-01-21T20:07:51.801Z,101175.88
2023-01-21T20:10:24.357Z,101187.47
2023-01-21T20:12:52.734Z,101179.53
2023-01-21T20:15:24.650Z,101183.25
2023-01-21T20:17:56.066Z,101181.00
2023-01-21T20:23:16.385Z,101186.50
2023-01-21T20:25:46.042Z,101180.78
2023-01-21T20:28:19.206Z,101183.97
2023-01-21T20:30:49.101Z,101169.19
2023-01-21T20:33:27.030Z,101177.59
2023-01-21T20:35:57.207Z,101171.03
2023-01-21T20:38:28.291Z,101165.75
2023-01-21T20:40:56.076Z,101162.13
2023-01-21T20:43:23.962Z,101165.47
2023-01-21T20:45:53.003Z,101162.53
2023-01-21T20:48:25.828Z,101166.19
2023-01-21T20:50:54.120Z,101163.34
2023-01-21T20:53:22.122Z,101158.88
2023-01-21T20:55:52.237Z,101147.06
2023-01-21T20:58:21.915Z,101155.41
2023-01-21T21:00:50.030Z,101144.34
2023-01-21T21:03:19.441Z,101148.38
2023-01-21T21:05:49.904Z,101145.38
2023-01-21T21:08:20.258Z,101143.13
2023-01-21T21:10:49.899Z,101145.31
2023-01-21T21:13:17.450Z,101147.72
2023-01-21T21:15:46.738Z,101145.78
2023-01-21T21:18:14.976Z,101130.91
2023-01-21T21:20:43.113Z,101137.38
2023-01-21T21:23:14.640Z,101136.66
2023-01-21T21:25:45.490Z,101134.44
2023-01-21T21:28:15.171Z,101132.81
2023-01-21T21:30:43.319Z,101135.81
2023-01-21T21:33:16.295Z,101124.78
2023-01-21T21:35:44.661Z,101130.59
2023-01-21T21:38:15.851Z,101129.56
2023-01-21T21:40:46.176Z,101129.22
2023-01-21T21:43:38.725Z,101116.91
2023-01-21T21:46:25.490Z,101114.75
2023-01-21T21:48:53.292Z,101119.09
2023-01-21T21:51:22.437Z,101109.69
2023-01-21T21:53:51.593Z,101119.53
2023-01-21T21:56:21.537Z,101103.75
2023-01-21T21:58:50.188Z,101106.75
2023-01-21T22:01:20.543Z,101110.59
2023-01-21T22:03:48.744Z,101105.31
2023-01-21T22:06:18.432Z,101100.31
2023-01-21T22:08:46.040Z,101106.72
2023-01-21T22:11:17.018Z,101107.59
2023-01-21T22:13:47.913Z,101105.88
2023-01-21T22:16:18.740Z,101105.66
2023-01-21T22:18:46.618Z,101096.91
2023-01-21T22:21:16.466Z,101099.06
2023-01-21T22:23:44.411Z,101098.91
2023-01-21T22:26:14.255Z,101086.44
2023-01-21T22:28:44.878Z,101095.16
2023-01-21T22:31:14.572Z,101090.97
2023-01-21T22:33:42.395Z,101088.97
2023-01-21T22:36:11.994Z,101086.31
2023-01-21T22:38:40.849Z,101085.56
2023-01-21T22:41:10.183Z,101094.56
2023-01-21T22:43:41.674Z,101081.16
2023-01-21T22:46:13.289Z,101087.91
2023-01-21T22:48:41.441Z,101085.47
2023-01-21T22:51:11.947Z,101080.09
2023-01-21T22:53:40.724Z,101085.81
2023-01-21T22:56:08.869Z,101078.00
2023-01-21T22:58:37.641Z,101077.25
2023-01-21T23:01:06.166Z,101073.22
2023-01-21T23:03:35.420Z,101083.03
2023-01-21T23:06:06.393Z,101067.41
2023-01-21T23:08:34.135Z,101077.31
2023-01-21T23:11:02.432Z,101078.16
2023-01-21T23:13:30.468Z,101057.25
2023-01-21T23:15:58.348Z,101073.06
2023-01-21T23:18:27.570Z,101062.38
2023-01-21T23:21:01.809Z,101068.59
2023-01-21T23:23:35.622Z,101056.13
2023-01-21T23:26:03.950Z,101058.16
2023-01-21T23:28:31.640Z,101054.44
2023-01-21T23:30:59.399Z,101046.94
2023-01-21T23:33:27.109Z,101047.41
2023-01-21T23:35:56.678Z,101047.84
2023-01-21T23:38:27.351Z,101051.72
2023-01-21T23:40:58.263Z,101046.34
2023-01-21T23:43:26.938Z,101053.19
2023-01-21T23:45:56.272Z,101051.38
2023-01-21T23:48:26.429Z,101046.34
2023-01-21T23:50:54.014Z,101046.88
2023-01-21T23:53:23.202Z,101039.47
2023-01-21T23:55:51.091Z,101046.03
2023-01-21T23:58:18.641Z,101040.81
